sensor_id;sensor_type;location;lat;lon;timestamp;temperature;humidity
37754;DHT22;23596;52.520;13.464;2022-09-29T00:00:37;9.90;99.90
37754;DHT22;23596;52.520;13.464;2022-09-29T00:03:03;9.80;99.90
37754;DHT22;23596;52.520;13.464;2022-09-29T00:05:29;9.80;99.90
37754;DHT22;23596;52.520;13.464;2022-09-29T00:07:55;9.80;99.90
37754;DHT22;23596;52.520;13.464;2022-09-29T00:10:20;9.70;99.90
37754;DHT22;23596;52.520;13.464;2022-09-29T00:12:46;9.70;99.90
37754;DHT22;23596;52.520;13.464;2022-09-29T00:15:12;9.70;99.90
37754;DHT22;23596;52.520;13.464;2022-09-29T00:17:38;9.70;99.90
37754;DHT22;23596;52.520;13.464;2022-09-29T00:20:04;9.60;99.90
37754;DHT22;23596;52.520;13.464;2022-09-29T00:22:29;9.60;99.90
37754;DHT22;23596;52.520;13.464;2022-09-29T00:24:55;9.50;99.90
37754;DHT22;23596;52.520;13.464;2022-09-29T00:27:21;9.50;99.90
37754;DHT22;23596;52.520;13.464;2022-09-29T00:29:46;9.50;99.90
37754;DHT22;23596;52.520;13.464;2022-09-29T00:32:12;9.60;99.90
37754;DHT22;23596;52.520;13.464;2022-09-29T00:34:38;9.50;99.90
37754;DHT22;23596;52.520;13.464;2022-09-29T00:37:04;9.50;99.90
37754;DHT22;23596;52.520;13.464;2022-09-29T00:39:29;9.50;99.90
37754;DHT22;23596;52.520;13.464;2022-09-29T00:41:55;9.50;99.90
37754;DHT22;23596;52.520;13.464;2022-09-29T00:49:42;9.50;99.90
37754;DHT22;23596;52.520;13.464;2022-09-29T00:52:14;9.50;99.90
37754;DHT22;23596;52.520;13.464;2022-09-29T00:57:26;9.40;99.90
37754;DHT22;23596;52.520;13.464;2022-09-29T01:02:28;9.40;99.90
37754;DHT22;23596;52.520;13.464;2022-09-29T01:04:55;9.40;99.90
37754;DHT22;23596;52.520;13.464;2022-09-29T01:07:22;9.40;99.90
37754;DHT22;23596;52.520;13.464;2022-09-29T01:09:49;9.40;99.90
37754;DHT22;23596;52.520;13.464;2022-09-29T01:12:18;9.30;99.90
37754;DHT22;23596;52.520;13.464;2022-09-29T01:14:44;9.30;99.90
37754;DHT22;23596;52.520;13.464;2022-09-29T01:17:11;9.40;99.90
37754;DHT22;23596;52.520;13.464;2022-09-29T01:22:56;9.40;99.90
37754;DHT22;23596;52.520;13.464;2022-09-29T01:34:30;9.20;99.90
37754;DHT22;23596;52.520;13.464;2022-09-29T01:36:34;9.10;99.90
37754;DHT22;23596;52.520;13.464;2022-09-29T01:41:57;9.00;99.90
37754;DHT22;23596;52.520;13.464;2022-09-29T01:44:35;9.00;99.90
37754;DHT22;23596;52.520;13.464;2022-09-29T01:47:09;9.00;99.90
37754;DHT22;23596;52.520;13.464;2022-09-29T01:49:40;9.00;99.90
37754;DHT22;23596;52.520;13.464;2022-09-29T01:52:11;9.10;99.90
37754;DHT22;23596;52.520;13.464;2022-09-29T01:54:48;9.10;99.90
37754;DHT22;23596;52.520;13.464;2022-09-29T01:57:24;9.20;99.90
37754;DHT22;23596;52.520;13.464;2022-09-29T02:02:40;9.20;99.90
37754;DHT22;23596;52.520;13.464;2022-09-29T02:05:14;9.20;99.90
37754;DHT22;23596;52.520;13.464;2022-09-29T02:07:43;9.20;99.90
37754;DHT22;23596;52.520;13.464;2022-09-29T02:10:20;9.20;99.90
37754;DHT22;23596;52.520;13.464;2022-09-29T02:12:48;9.20;99.90
37754;DHT22;23596;52.520;13.464;2022-09-29T02:15:20;9.20;99.90
37754;DHT22;23596;52.520;13.464;2022-09-29T02:17:49;9.20;99.90
37754;DHT22;23596;52.520;13.464;2022-09-29T02:20:17;9.20;99.90
37754;DHT22;23596;52.520;13.464;2022-09-29T02:22:43;9.10;99.90
37754;DHT22;23596;52.520;13.464;2022-09-29T02:25:10;9.20;99.90
37754;DHT22;23596;52.520;13.464;2022-09-29T02:27:37;9.10;99.90
37754;DHT22;23596;52.520;13.464;2022-09-29T02:30:03;9.20;99.90
37754;DHT22;23596;52.520;13.464;2022-09-29T02:32:32;9.10;99.90
37754;DHT22;23596;52.520;13.464;2022-09-29T02:34:59;9.10;99.90
37754;DHT22;23596;52.520;13.464;2022-09-29T02:37:46;9.20;99.90
37754;DHT22;23596;52.520;13.464;2022-09-29T02:51:27;9.30;99.90
37754;DHT22;23596;52.520;13.464;2022-09-29T02:54:15;9.30;99.90
37754;DHT22;23596;52.520;13.464;2022-09-29T02:56:46;9.30;99.90
37754;DHT22;23596;52.520;13.464;2022-09-29T02:59:20;9.20;99.90
37754;DHT22;23596;52.520;13.464;2022-09-29T03:01:53;9.10;99.90
37754;DHT22;23596;52.520;13.464;2022-09-29T03:04:21;9.20;99.90
37754;DHT22;23596;52.520;13.464;2022-09-29T03:06:47;9.80;99.90
37754;DHT22;23596;52.520;13.464;2022-09-29T03:09:13;9.10;99.90
37754;DHT22;23596;52.520;13.464;2022-09-29T03:11:39;9.10;99.90
37754;DHT22;23596;52.520;13.464;2022-09-29T03:14:05;9.10;99.90
37754;DHT22;23596;52.520;13.464;2022-09-29T03:16:33;9.10;99.90
37754;DHT22;23596;52.520;13.464;2022-09-29T03:18:59;9.10;99.90
37754;DHT22;23596;52.520;13.464;2022-09-29T03:21:25;9.10;99.90
37754;DHT22;23596;52.520;13.464;2022-09-29T03:23:51;9.00;99.90
37754;DHT22;23596;52.520;13.464;2022-09-29T03:26:16;9.10;99.90
37754;DHT22;23596;52.520;13.464;2022-09-29T03:28:42;9.10;99.90
37754;DHT22;23596;52.520;13.464;2022-09-29T03:31:08;9.10;99.90
37754;DHT22;23596;52.520;13.464;2022-09-29T03:33:35;9.10;99.90
37754;DHT22;23596;52.520;13.464;2022-09-29T03:36:03;9.10;99.90
37754;DHT22;23596;52.520;13.464;2022-09-29T03:38:30;9.10;99.90
37754;DHT22;23596;52.520;13.464;2022-09-29T03:40:55;9.20;99.90
37754;DHT22;23596;52.520;13.464;2022-09-29T03:43:21;9.20;99.90
37754;DHT22;23596;52.520;13.464;2022-09-29T03:45:51;9.30;99.90
37754;DHT22;23596;52.520;13.464;2022-09-29T03:48:18;9.30;99.90
37754;DHT22;23596;52.520;13.464;2022-09-29T03:50:46;9.30;99.90
37754;DHT22;23596;52.520;13.464;2022-09-29T03:53:12;9.30;99.90
37754;DHT22;23596;52.520;13.464;2022-09-29T03:55:38;9.30;99.90
37754;DHT22;23596;52.520;13.464;2022-09-29T03:58:03;9.30;99.90
37754;DHT22;23596;52.520;13.464;2022-09-29T04:00:29;9.40;99.90
37754;DHT22;23596;52.520;13.464;2022-09-29T04:02:54;9.40;99.90
37754;DHT22;23596;52.520;13.464;2022-09-29T04:05:20;9.40;99.90
37754;DHT22;23596;52.520;13.464;2022-09-29T04:07:46;9.40;99.90
37754;DHT22;23596;52.520;13.464;2022-09-29T04:10:11;9.40;99.90
37754;DHT22;23596;52.520;13.464;2022-09-29T04:12:37;9.40;99.90
37754;DHT22;23596;52.520;13.464;2022-09-29T04:15:03;9.40;99.90
37754;DHT22;23596;52.520;13.464;2022-09-29T04:17:29;9.40;99.90
37754;DHT22;23596;52.520;13.464;2022-09-29T04:19:55;9.40;99.90
37754;DHT22;23596;52.520;13.464;2022-09-29T04:22:20;9.40;99.90
37754;DHT22;23596;52.520;13.464;2022-09-29T04:24:46;9.50;99.90
37754;DHT22;23596;52.520;13.464;2022-09-29T04:27:17;9.40;99.90
37754;DHT22;23596;52.520;13.464;2022-09-29T04:29:43;9.40;99.90
37754;DHT22;23596;52.520;13.464;2022-09-29T04:32:09;9.40;99.90
37754;DHT22;23596;52.520;13.464;2022-09-29T04:34:35;9.50;99.90
37754;DHT22;23596;52.520;13.464;2022-09-29T04:37:01;9.50;99.90
37754;DHT22;23596;52.520;13.464;2022-09-29T04:39:27;9.50;99.90
37754;DHT22;23596;52.520;13.464;2022-09-29T04:41:52;9.50;99.90
37754;DHT22;23596;52.520;13.464;2022-09-29T04:44:18;9.40;99.90
37754;DHT22;23596;52.520;13.464;2022-09-29T04:46:50;9.50;99.90
37754;DHT22;23596;52.520;13.464;2022-09-29T04:49:17;9.60;99.90
37754;DHT22;23596;52.520;13.464;2022-09-29T04:51:42;10.10;99.90
37754;DHT22;23596;52.520;13.464;2022-09-29T04:54:08;9.50;99.90
37754;DHT22;23596;52.520;13.464;2022-09-29T04:56:33;9.50;99.90
37754;DHT22;23596;52.520;13.464;2022-09-29T04:58:59;9.60;99.90
37754;DHT22;23596;52.520;13.464;2022-09-29T05:01:25;9.60;99.90
37754;DHT22;23596;52.520;13.464;2022-09-29T05:03:51;9.60;99.90
37754;DHT22;23596;52.520;13.464;2022-09-29T05:06:16;9.60;99.90
37754;DHT22;23596;52.520;13.464;2022-09-29T05:08:42;9.60;99.90
37754;DHT22;23596;52.520;13.464;2022-09-29T05:11:08;9.60;99.90
37754;DHT22;23596;52.520;13.464;2022-09-29T05:13:35;9.60;99.90
37754;DHT22;23596;52.520;13.464;2022-09-29T05:16:01;9.60;99.90
37754;DHT22;23596;52.520;13.464;2022-09-29T05:18:27;9.60;99.90
37754;DHT22;23596;52.520;13.464;2022-09-29T05:20:53;9.60;99.90
37754;DHT22;23596;52.520;13.464;2022-09-29T05:23:18;9.60;99.90
37754;DHT22;23596;52.520;13.464;2022-09-29T05:25:44;9.60;99.90
37754;DHT22;23596;52.520;13.464;2022-09-29T05:28:10;9.60;99.90
37754;DHT22;23596;52.520;13.464;2022-09-29T05:30:37;9.60;99.90
37754;DHT22;23596;52.520;13.464;2022-09-29T05:33:03;9.60;99.90
37754;DHT22;23596;52.520;13.464;2022-09-29T05:35:29;9.60;99.90
37754;DHT22;23596;52.520;13.464;2022-09-29T05:37:55;9.60;99.90
37754;DHT22;23596;52.520;13.464;2022-09-29T05:40:20;9.70;99.90
37754;DHT22;23596;52.520;13.464;2022-09-29T05:42:48;9.60;99.90
37754;DHT22;23596;52.520;13.464;2022-09-29T05:45:14;9.70;99.90
37754;DHT22;23596;52.520;13.464;2022-09-29T05:47:43;9.80;99.90
37754;DHT22;23596;52.520;13.464;2022-09-29T05:50:10;9.80;99.90
37754;DHT22;23596;52.520;13.464;2022-09-29T05:52:36;9.80;99.90
37754;DHT22;23596;52.520;13.464;2022-09-29T05:55:03;9.80;99.90
37754;DHT22;23596;52.520;13.464;2022-09-29T05:57:29;9.80;99.90
37754;DHT22;23596;52.520;13.464;2022-09-29T05:59:54;9.80;99.90
37754;DHT22;23596;52.520;13.464;2022-09-29T06:02:20;9.80;99.90
37754;DHT22;23596;52.520;13.464;2022-09-29T06:04:46;9.80;99.90
37754;DHT22;23596;52.520;13.464;2022-09-29T06:07:11;9.90;99.90
37754;DHT22;23596;52.520;13.464;2022-09-29T06:09:37;9.90;99.90
37754;DHT22;23596;52.520;13.464;2022-09-29T06:12:03;9.90;99.90
37754;DHT22;23596;52.520;13.464;2022-09-29T06:14:28;9.90;99.90
37754;DHT22;23596;52.520;13.464;2022-09-29T06:16:54;9.90;99.90
37754;DHT22;23596;52.520;13.464;2022-09-29T06:19:20;9.90;99.90
37754;DHT22;23596;52.520;13.464;2022-09-29T06:21:46;10.00;99.90
37754;DHT22;23596;52.520;13.464;2022-09-29T06:24:11;10.00;99.90
37754;DHT22;23596;52.520;13.464;2022-09-29T06:26:37;10.00;99.90
37754;DHT22;23596;52.520;13.464;2022-09-29T06:29:03;10.00;99.90
37754;DHT22;23596;52.520;13.464;2022-09-29T06:31:29;10.00;99.90
37754;DHT22;23596;52.520;13.464;2022-09-29T06:33:59;10.00;99.90
37754;DHT22;23596;52.520;13.464;2022-09-29T06:36:31;10.00;99.90
37754;DHT22;23596;52.520;13.464;2022-09-29T06:39:16;10.00;99.90
37754;DHT22;23596;52.520;13.464;2022-09-29T06:41:43;10.00;99.90
37754;DHT22;23596;52.520;13.464;2022-09-29T06:44:13;10.10;99.90
37754;DHT22;23596;52.520;13.464;2022-09-29T06:46:39;10.10;99.90
37754;DHT22;23596;52.520;13.464;2022-09-29T06:49:04;10.10;99.90
37754;DHT22;23596;52.520;13.464;2022-09-29T06:51:30;10.10;99.90
37754;DHT22;23596;52.520;13.464;2022-09-29T06:53:56;10.10;99.90
37754;DHT22;23596;52.520;13.464;2022-09-29T06:56:21;10.10;99.90
37754;DHT22;23596;52.520;13.464;2022-09-29T06:58:47;10.20;99.90
37754;DHT22;23596;52.520;13.464;2022-09-29T07:01:13;10.20;99.90
37754;DHT22;23596;52.520;13.464;2022-09-29T07:03:39;10.10;99.90
37754;DHT22;23596;52.520;13.464;2022-09-29T07:06:06;10.20;99.90
37754;DHT22;23596;52.520;13.464;2022-09-29T07:08:32;10.20;99.90
37754;DHT22;23596;52.520;13.464;2022-09-29T07:11:00;10.20;99.90
37754;DHT22;23596;52.520;13.464;2022-09-29T07:13:28;10.20;99.90
37754;DHT22;23596;52.520;13.464;2022-09-29T07:15:53;10.20;99.90
37754;DHT22;23596;52.520;13.464;2022-09-29T07:18:19;10.20;99.90
37754;DHT22;23596;52.520;13.464;2022-09-29T07:20:45;10.20;99.90
37754;DHT22;23596;52.520;13.464;2022-09-29T07:23:10;10.20;99.90
37754;DHT22;23596;52.520;13.464;2022-09-29T07:25:36;10.30;99.90
37754;DHT22;23596;52.520;13.464;2022-09-29T07:28:02;10.30;99.90
37754;DHT22;23596;52.520;13.464;2022-09-29T07:30:28;10.30;99.90
37754;DHT22;23596;52.520;13.464;2022-09-29T07:32:53;10.30;99.90
37754;DHT22;23596;52.520;13.464;2022-09-29T07:35:22;10.40;99.90
37754;DHT22;23596;52.520;13.464;2022-09-29T07:37:52;10.30;99.90
37754;DHT22;23596;52.520;13.464;2022-09-29T07:40:19;10.30;99.90
37754;DHT22;23596;52.520;13.464;2022-09-29T07:42:45;10.30;99.90
37754;DHT22;23596;52.520;13.464;2022-09-29T07:45:11;10.30;99.90
37754;DHT22;23596;52.520;13.464;2022-09-29T07:47:37;10.20;99.90
37754;DHT22;23596;52.520;13.464;2022-09-29T07:50:03;10.30;99.90
37754;DHT22;23596;52.520;13.464;2022-09-29T07:52:28;10.30;99.90
37754;DHT22;23596;52.520;13.464;2022-09-29T07:54:54;10.30;99.90
37754;DHT22;23596;52.520;13.464;2022-09-29T07:57:19;10.30;99.90
37754;DHT22;23596;52.520;13.464;2022-09-29T07:59:45;10.20;99.90
37754;DHT22;23596;52.520;13.464;2022-09-29T08:02:10;10.30;99.90
37754;DHT22;23596;52.520;13.464;2022-09-29T08:04:36;10.30;99.90
37754;DHT22;23596;52.520;13.464;2022-09-29T08:07:02;10.30;99.90
37754;DHT22;23596;52.520;13.464;2022-09-29T08:09:28;10.30;99.90
37754;DHT22;23596;52.520;13.464;2022-09-29T08:11:53;10.30;99.90
37754;DHT22;23596;52.520;13.464;2022-09-29T08:14:19;10.30;99.90
37754;DHT22;23596;52.520;13.464;2022-09-29T08:16:44;10.40;99.90
37754;DHT22;23596;52.520;13.464;2022-09-29T08:19:10;10.40;99.90
37754;DHT22;23596;52.520;13.464;2022-09-29T08:21:35;10.50;99.90
37754;DHT22;23596;52.520;13.464;2022-09-29T08:24:02;10.50;99.90
37754;DHT22;23596;52.520;13.464;2022-09-29T08:26:33;10.60;99.90
37754;DHT22;23596;52.520;13.464;2022-09-29T08:29:02;10.60;99.90
37754;DHT22;23596;52.520;13.464;2022-09-29T08:31:28;10.70;99.90
37754;DHT22;23596;52.520;13.464;2022-09-29T08:33:55;10.70;99.90
37754;DHT22;23596;52.520;13.464;2022-09-29T08:36:22;10.70;99.90
37754;DHT22;23596;52.520;13.464;2022-09-29T08:38:50;10.70;99.90
37754;DHT22;23596;52.520;13.464;2022-09-29T08:43:45;10.90;99.90
37754;DHT22;23596;52.520;13.464;2022-09-29T08:46:26;10.90;99.90
37754;DHT22;23596;52.520;13.464;2022-09-29T08:48:53;11.00;99.90
37754;DHT22;23596;52.520;13.464;2022-09-29T08:51:34;11.00;99.90
37754;DHT22;23596;52.520;13.464;2022-09-29T08:54:06;11.10;99.90
37754;DHT22;23596;52.520;13.464;2022-09-29T08:56:34;11.20;99.90
37754;DHT22;23596;52.520;13.464;2022-09-29T08:58:59;11.30;99.90
37754;DHT22;23596;52.520;13.464;2022-09-29T09:01:31;11.30;99.90
37754;DHT22;23596;52.520;13.464;2022-09-29T09:04:11;11.50;99.90
37754;DHT22;23596;52.520;13.464;2022-09-29T09:18:01;11.70;99.90
37754;DHT22;23596;52.520;13.464;2022-09-29T09:20:35;11.70;99.90
37754;DHT22;23596;52.520;13.464;2022-09-29T09:23:29;11.70;99.90
37754;DHT22;23596;52.520;13.464;2022-09-29T09:26:01;11.80;99.90
37754;DHT22;23596;52.520;13.464;2022-09-29T09:28:32;11.90;99.90
37754;DHT22;23596;52.520;13.464;2022-09-29T09:31:18;11.90;99.90
37754;DHT22;23596;52.520;13.464;2022-09-29T09:34:13;12.00;99.90
37754;DHT22;23596;52.520;13.464;2022-09-29T09:36:46;11.90;99.90
37754;DHT22;23596;52.520;13.464;2022-09-29T09:39:26;12.00;99.90
37754;DHT22;23596;52.520;13.464;2022-09-29T09:41:56;12.00;99.90
37754;DHT22;23596;52.520;13.464;2022-09-29T09:44:33;12.00;99.90
37754;DHT22;23596;52.520;13.464;2022-09-29T09:47:25;12.10;99.90
37754;DHT22;23596;52.520;13.464;2022-09-29T09:49:59;12.10;99.90
37754;DHT22;23596;52.520;13.464;2022-09-29T09:52:36;12.20;99.90
37754;DHT22;23596;52.520;13.464;2022-09-29T09:55:05;12.20;99.90
37754;DHT22;23596;52.520;13.464;2022-09-29T10:00:57;12.20;99.90
37754;DHT22;23596;52.520;13.464;2022-09-29T10:03:26;12.20;99.90
37754;DHT22;23596;52.520;13.464;2022-09-29T10:05:52;12.20;99.90
37754;DHT22;23596;52.520;13.464;2022-09-29T10:08:26;12.20;99.90
37754;DHT22;23596;52.520;13.464;2022-09-29T10:10:53;12.20;99.90
37754;DHT22;23596;52.520;13.464;2022-09-29T10:13:19;12.30;99.90
37754;DHT22;23596;52.520;13.464;2022-09-29T10:15:55;12.30;99.90
37754;DHT22;23596;52.520;13.464;2022-09-29T10:18:28;12.40;99.90
37754;DHT22;23596;52.520;13.464;2022-09-29T10:20:55;12.40;99.90
37754;DHT22;23596;52.520;13.464;2022-09-29T10:23:32;12.50;99.90
37754;DHT22;23596;52.520;13.464;2022-09-29T10:26:08;12.50;99.90
37754;DHT22;23596;52.520;13.464;2022-09-29T10:28:56;12.50;99.90
37754;DHT22;23596;52.520;13.464;2022-09-29T10:31:30;12.60;99.90
37754;DHT22;23596;52.520;13.464;2022-09-29T10:34:00;12.80;99.90
37754;DHT22;23596;52.520;13.464;2022-09-29T10:36:32;12.80;99.90
37754;DHT22;23596;52.520;13.464;2022-09-29T10:39:00;12.80;99.90
37754;DHT22;23596;52.520;13.464;2022-09-29T10:41:25;12.80;99.90
37754;DHT22;23596;52.520;13.464;2022-09-29T10:43:51;12.90;99.90
37754;DHT22;23596;52.520;13.464;2022-09-29T10:46:36;13.00;99.90
37754;DHT22;23596;52.520;13.464;2022-09-29T10:49:20;13.10;99.90
37754;DHT22;23596;52.520;13.464;2022-09-29T10:52:02;13.20;99.90
37754;DHT22;23596;52.520;13.464;2022-09-29T10:54:32;13.20;99.90
37754;DHT22;23596;52.520;13.464;2022-09-29T10:56:59;13.20;99.90
37754;DHT22;23596;52.520;13.464;2022-09-29T10:59:26;13.30;99.90
37754;DHT22;23596;52.520;13.464;2022-09-29T11:01:55;13.40;99.90
37754;DHT22;23596;52.520;13.464;2022-09-29T11:04:27;13.50;99.90
37754;DHT22;23596;52.520;13.464;2022-09-29T11:06:54;13.50;99.90
37754;DHT22;23596;52.520;13.464;2022-09-29T11:16:55;13.70;99.90
37754;DHT22;23596;52.520;13.464;2022-09-29T11:19:22;13.70;99.90
37754;DHT22;23596;52.520;13.464;2022-09-29T11:30:09;13.70;99.90
37754;DHT22;23596;52.520;13.464;2022-09-29T11:32:47;13.70;99.90
37754;DHT22;23596;52.520;13.464;2022-09-29T11:35:26;13.60;99.90
37754;DHT22;23596;52.520;13.464;2022-09-29T11:43:33;13.50;99.90
37754;DHT22;23596;52.520;13.464;2022-09-29T11:46:11;13.50;99.90
37754;DHT22;23596;52.520;13.464;2022-09-29T11:48:51;13.50;99.90
37754;DHT22;23596;52.520;13.464;2022-09-29T11:57:06;13.40;99.90
37754;DHT22;23596;52.520;13.464;2022-09-29T11:59:58;13.40;99.90
37754;DHT22;23596;52.520;13.464;2022-09-29T12:03:02;13.40;99.90
37754;DHT22;23596;52.520;13.464;2022-09-29T12:14:04;13.50;99.90
37754;DHT22;23596;52.520;13.464;2022-09-29T12:16:35;13.50;99.90
37754;DHT22;23596;52.520;13.464;2022-09-29T12:19:09;13.50;99.90
37754;DHT22;23596;52.520;13.464;2022-09-29T12:21:39;13.50;99.90
37754;DHT22;23596;52.520;13.464;2022-09-29T12:24:13;13.40;99.90
37754;DHT22;23596;52.520;13.464;2022-09-29T12:26:40;13.30;99.90
37754;DHT22;23596;52.520;13.464;2022-09-29T12:31:45;13.30;99.90
37754;DHT22;23596;52.520;13.464;2022-09-29T12:57:01;13.80;99.90
37754;DHT22;23596;52.520;13.464;2022-09-29T13:10:41;14.20;99.90
37754;DHT22;23596;52.520;13.464;2022-09-29T13:13:33;14.50;99.90
37754;DHT22;23596;52.520;13.464;2022-09-29T13:22:00;16.00;99.90
37754;DHT22;23596;52.520;13.464;2022-09-29T13:25:04;16.60;99.90
37754;DHT22;23596;52.520;13.464;2022-09-29T13:27:38;17.00;99.90
37754;DHT22;23596;52.520;13.464;2022-09-29T13:30:18;17.20;99.90
37754;DHT22;23596;52.520;13.464;2022-09-29T13:32:47;17.30;99.90
37754;DHT22;23596;52.520;13.464;2022-09-29T13:35:18;17.40;99.90
37754;DHT22;23596;52.520;13.464;2022-09-29T13:37:50;17.60;99.90
37754;DHT22;23596;52.520;13.464;2022-09-29T13:42:48;17.80;99.90
37754;DHT22;23596;52.520;13.464;2022-09-29T13:47:53;17.50;99.90
37754;DHT22;23596;52.520;13.464;2022-09-29T13:50:39;17.40;99.90
37754;DHT22;23596;52.520;13.464;2022-09-29T13:55:56;16.90;99.90
37754;DHT22;23596;52.520;13.464;2022-09-29T14:01:09;16.30;99.90
37754;DHT22;23596;52.520;13.464;2022-09-29T14:03:37;16.10;99.90
37754;DHT22;23596;52.520;13.464;2022-09-29T14:06:12;15.90;99.90
37754;DHT22;23596;52.520;13.464;2022-09-29T14:09:18;15.70;99.90
37754;DHT22;23596;52.520;13.464;2022-09-29T14:11:49;15.50;99.90
37754;DHT22;23596;52.520;13.464;2022-09-29T14:14:45;15.30;99.90
37754;DHT22;23596;52.520;13.464;2022-09-29T14:17:30;15.10;99.90
37754;DHT22;23596;52.520;13.464;2022-09-29T14:27:39;14.60;99.90
37754;DHT22;23596;52.520;13.464;2022-09-29T14:30:13;14.50;99.90
37754;DHT22;23596;52.520;13.464;2022-09-29T14:32:58;14.50;99.90
37754;DHT22;23596;52.520;13.464;2022-09-29T14:35:34;14.40;99.90
37754;DHT22;23596;52.520;13.464;2022-09-29T14:40:56;14.30;99.90
37754;DHT22;23596;52.520;13.464;2022-09-29T14:43:41;14.30;99.90
37754;DHT22;23596;52.520;13.464;2022-09-29T14:49:33;14.20;99.90
37754;DHT22;23596;52.520;13.464;2022-09-29T14:52:15;14.30;99.90
37754;DHT22;23596;52.520;13.464;2022-09-29T14:55:15;14.30;99.90
37754;DHT22;23596;52.520;13.464;2022-09-29T15:00:44;14.60;99.90
37754;DHT22;23596;52.520;13.464;2022-09-29T15:03:17;14.80;99.90
37754;DHT22;23596;52.520;13.464;2022-09-29T15:06:24;15.10;99.90
37754;DHT22;23596;52.520;13.464;2022-09-29T15:08:59;15.50;99.90
37754;DHT22;23596;52.520;13.464;2022-09-29T15:11:40;15.50;99.90
37754;DHT22;23596;52.520;13.464;2022-09-29T15:16:50;15.50;99.90
37754;DHT22;23596;52.520;13.464;2022-09-29T15:22:07;15.40;99.90
37754;DHT22;23596;52.520;13.464;2022-09-29T15:25:00;15.30;99.90
37754;DHT22;23596;52.520;13.464;2022-09-29T15:27:27;15.20;99.90
37754;DHT22;23596;52.520;13.464;2022-09-29T15:29:54;15.10;99.90
37754;DHT22;23596;52.520;13.464;2022-09-29T15:32:25;15.00;99.90
37754;DHT22;23596;52.520;13.464;2022-09-29T15:34:53;14.90;99.90
37754;DHT22;23596;52.520;13.464;2022-09-29T15:37:24;14.90;99.90
37754;DHT22;23596;52.520;13.464;2022-09-29T15:39:51;14.80;99.90
37754;DHT22;23596;52.520;13.464;2022-09-29T15:42:19;14.80;99.90
37754;DHT22;23596;52.520;13.464;2022-09-29T15:44:59;14.70;99.90
37754;DHT22;23596;52.520;13.464;2022-09-29T15:47:34;14.70;99.90
37754;DHT22;23596;52.520;13.464;2022-09-29T15:52:40;14.50;99.90
37754;DHT22;23596;52.520;13.464;2022-09-29T15:55:13;14.50;99.90
37754;DHT22;23596;52.520;13.464;2022-09-29T15:57:44;14.40;99.90
37754;DHT22;23596;52.520;13.464;2022-09-29T16:02:50;14.40;99.90
37754;DHT22;23596;52.520;13.464;2022-09-29T16:05:19;14.40;99.90
37754;DHT22;23596;52.520;13.464;2022-09-29T16:08:00;14.50;99.90
37754;DHT22;23596;52.520;13.464;2022-09-29T16:10:29;14.50;99.90
37754;DHT22;23596;52.520;13.464;2022-09-29T16:13:01;14.40;99.90
37754;DHT22;23596;52.520;13.464;2022-09-29T16:15:31;14.50;99.90
37754;DHT22;23596;52.520;13.464;2022-09-29T16:17:58;14.30;99.90
37754;DHT22;23596;52.520;13.464;2022-09-29T16:20:29;14.30;99.90
37754;DHT22;23596;52.520;13.464;2022-09-29T16:23:03;14.30;99.90
37754;DHT22;23596;52.520;13.464;2022-09-29T16:25:29;14.30;99.90
37754;DHT22;23596;52.520;13.464;2022-09-29T16:28:00;14.20;99.90
37754;DHT22;23596;52.520;13.464;2022-09-29T16:30:29;14.20;99.90
37754;DHT22;23596;52.520;13.464;2022-09-29T16:40:49;13.80;99.90
37754;DHT22;23596;52.520;13.464;2022-09-29T16:43:27;13.80;99.90
37754;DHT22;23596;52.520;13.464;2022-09-29T16:45:58;13.70;99.90
37754;DHT22;23596;52.520;13.464;2022-09-29T16:48:27;13.60;99.90
37754;DHT22;23596;52.520;13.464;2022-09-29T16:50:58;13.60;99.90
37754;DHT22;23596;52.520;13.464;2022-09-29T16:53:29;13.50;99.90
37754;DHT22;23596;52.520;13.464;2022-09-29T16:55:57;13.40;99.90
37754;DHT22;23596;52.520;13.464;2022-09-29T16:58:23;13.30;99.90
37754;DHT22;23596;52.520;13.464;2022-09-29T17:00:50;13.30;99.90
37754;DHT22;23596;52.520;13.464;2022-09-29T17:03:15;13.20;99.90
37754;DHT22;23596;52.520;13.464;2022-09-29T17:05:42;13.10;99.90
37754;DHT22;23596;52.520;13.464;2022-09-29T17:08:21;13.10;99.90
37754;DHT22;23596;52.520;13.464;2022-09-29T17:10:51;13.00;99.90
37754;DHT22;23596;52.520;13.464;2022-09-29T17:13:17;13.00;99.90
37754;DHT22;23596;52.520;13.464;2022-09-29T17:15:45;12.90;99.90
37754;DHT22;23596;52.520;13.464;2022-09-29T17:18:13;12.90;99.90
37754;DHT22;23596;52.520;13.464;2022-09-29T17:20:39;12.80;99.90
37754;DHT22;23596;52.520;13.464;2022-09-29T17:23:05;12.80;99.90
37754;DHT22;23596;52.520;13.464;2022-09-29T17:25:32;12.80;99.90
37754;DHT22;23596;52.520;13.464;2022-09-29T17:27:57;12.70;99.90
37754;DHT22;23596;52.520;13.464;2022-09-29T17:30:42;12.70;99.90
37754;DHT22;23596;52.520;13.464;2022-09-29T17:33:10;12.60;99.90
37754;DHT22;23596;52.520;13.464;2022-09-29T17:35:39;12.60;99.90
37754;DHT22;23596;52.520;13.464;2022-09-29T17:38:06;12.60;99.90
37754;DHT22;23596;52.520;13.464;2022-09-29T17:40:55;12.50;99.90
37754;DHT22;23596;52.520;13.464;2022-09-29T17:43:21;12.50;99.90
37754;DHT22;23596;52.520;13.464;2022-09-29T17:45:48;12.50;99.90
37754;DHT22;23596;52.520;13.464;2022-09-29T17:48:14;12.40;99.90
37754;DHT22;23596;52.520;13.464;2022-09-29T17:50:47;12.40;99.90
37754;DHT22;23596;52.520;13.464;2022-09-29T17:53:13;12.30;99.90
37754;DHT22;23596;52.520;13.464;2022-09-29T17:55:41;12.30;99.90
37754;DHT22;23596;52.520;13.464;2022-09-29T17:58:09;12.30;99.90
37754;DHT22;23596;52.520;13.464;2022-09-29T18:00:37;12.20;99.90
37754;DHT22;23596;52.520;13.464;2022-09-29T18:03:08;12.20;99.90
37754;DHT22;23596;52.520;13.464;2022-09-29T18:05:36;12.20;99.90
37754;DHT22;23596;52.520;13.464;2022-09-29T18:08:04;12.20;99.90
37754;DHT22;23596;52.520;13.464;2022-09-29T18:10:42;12.10;99.90
37754;DHT22;23596;52.520;13.464;2022-09-29T18:13:08;12.10;99.90
37754;DHT22;23596;52.520;13.464;2022-09-29T18:15:35;12.00;99.90
37754;DHT22;23596;52.520;13.464;2022-09-29T18:18:02;12.00;99.90
37754;DHT22;23596;52.520;13.464;2022-09-29T18:20:31;12.00;99.90
37754;DHT22;23596;52.520;13.464;2022-09-29T18:22:57;12.00;99.90
37754;DHT22;23596;52.520;13.464;2022-09-29T18:25:29;11.90;99.90
37754;DHT22;23596;52.520;13.464;2022-09-29T18:27:55;11.90;99.90
37754;DHT22;23596;52.520;13.464;2022-09-29T18:30:25;11.90;99.90
37754;DHT22;23596;52.520;13.464;2022-09-29T18:32:56;11.90;99.90
37754;DHT22;23596;52.520;13.464;2022-09-29T18:35:29;11.80;99.90
37754;DHT22;23596;52.520;13.464;2022-09-29T18:37:56;11.70;99.90
37754;DHT22;23596;52.520;13.464;2022-09-29T18:40:23;11.60;99.90